createdAt,value
2023-03-11T00:00:19.036Z,0.70
2023-03-11T00:02:48.117Z,0.80
2023-03-11T00:05:19.255Z,0.70
2023-03-11T00:07:52.763Z,0.50
2023-03-11T00:10:22.824Z,0.30
2023-03-11T00:12:52.951Z,0.37
2023-03-11T00:15:21.264Z,0.30
2023-03-11T00:17:49.405Z,0.30
2023-03-11T00:20:20.385Z,0.30
2023-03-11T00:22:48.886Z,0.33
2023-03-11T00:25:16.842Z,0.60
2023-03-11T00:27:44.958Z,0.37
2023-03-11T00:30:15.720Z,0.50
2023-03-11T00:32:43.933Z,0.50
2023-03-11T00:35:14.411Z,0.47
2023-03-11T00:37:42.841Z,0.50
2023-03-11T00:40:13.923Z,0.50
2023-03-11T00:42:41.906Z,0.43
2023-03-11T00:45:10.302Z,0.70
2023-03-11T00:47:40.137Z,0.60
2023-03-11T00:50:15.561Z,0.57
2023-03-11T00:52:43.570Z,0.53
2023-03-11T00:55:14.445Z,0.40
2023-03-11T00:57:42.647Z,0.40
2023-03-11T01:00:14.484Z,0.47
2023-03-11T01:02:43.964Z,0.50
2023-03-11T01:05:12.797Z,0.70
2023-03-11T01:07:40.897Z,0.60
2023-03-11T01:10:10.740Z,0.40
2023-03-11T01:12:38.797Z,0.80
2023-03-11T01:15:16.191Z,0.60
2023-03-11T01:17:45.615Z,0.80
2023-03-11T01:20:14.744Z,0.50
2023-03-11T01:22:42.770Z,0.63
2023-03-11T01:25:14.467Z,0.60
2023-03-11T01:27:42.668Z,0.60
2023-03-11T01:30:14.058Z,0.70
2023-03-11T01:32:42.093Z,1.30
2023-03-11T01:35:13.345Z,1.17
2023-03-11T01:37:41.423Z,1.63
2023-03-11T01:40:14.209Z,1.40
2023-03-11T01:42:42.233Z,1.37
2023-03-11T01:45:33.994Z,1.40
2023-03-11T01:48:02.079Z,1.83
2023-03-11T01:50:35.804Z,1.80
2023-03-11T01:53:04.486Z,1.80
2023-03-11T01:55:33.130Z,1.33
2023-03-11T01:58:03.759Z,1.83
2023-03-11T02:00:31.726Z,1.97
2023-03-11T02:03:02.337Z,2.37
2023-03-11T02:05:31.828Z,1.90
2023-03-11T02:08:00.187Z,2.30
2023-03-11T02:10:28.344Z,2.40
2023-03-11T02:12:56.434Z,2.53
2023-03-11T02:15:26.084Z,2.47
2023-03-11T02:17:56.426Z,2.50
2023-03-11T02:20:37.558Z,2.13
2023-03-11T02:23:05.947Z,2.20
2023-03-11T02:25:40.283Z,2.20
2023-03-11T02:28:13.014Z,2.10
2023-03-11T02:30:44.840Z,2.27
2023-03-11T02:33:14.429Z,2.20
2023-03-11T02:35:42.806Z,2.40
2023-03-11T02:38:10.961Z,2.13
2023-03-11T02:40:50.034Z,2.43
2023-03-11T02:43:23.704Z,2.40
2023-03-11T02:45:52.128Z,2.47
2023-03-11T02:48:21.206Z,2.53
2023-03-11T02:50:49.301Z,3.00
2023-03-11T02:53:17.712Z,2.73
2023-03-11T02:55:45.860Z,3.13
2023-03-11T02:58:13.887Z,2.93
2023-03-11T03:00:43.383Z,3.30
2023-03-11T03:03:11.811Z,2.90
2023-03-11T03:05:39.969Z,3.27
2023-03-11T03:08:08.233Z,2.50
2023-03-11T03:10:36.420Z,2.10
2023-03-11T03:13:04.749Z,2.30
2023-03-11T03:15:32.778Z,1.60
2023-03-11T03:18:02.296Z,1.53
2023-03-11T03:20:30.357Z,1.97
2023-03-11T03:22:58.452Z,1.60
2023-03-11T03:25:26.602Z,1.10
2023-03-11T03:27:54.704Z,1.10
2023-03-11T03:30:22.797Z,1.40
2023-03-11T03:32:50.958Z,1.20
2023-03-11T03:35:21.260Z,0.87
2023-03-11T03:37:49.338Z,0.90
2023-03-11T03:40:17.511Z,0.90
2023-03-11T03:42:45.570Z,0.60
2023-03-11T03:45:14.236Z,0.53
2023-03-11T03:47:42.358Z,0.70
2023-03-11T03:50:13.130Z,0.50
2023-03-11T03:52:42.593Z,0.50
2023-03-11T03:55:11.283Z,0.70
2023-03-11T03:57:39.362Z,0.50
2023-03-11T04:00:10.120Z,0.60
2023-03-11T04:02:38.350Z,0.50
2023-03-11T04:05:07.655Z,0.70
2023-03-11T04:07:36.497Z,0.60
2023-03-11T04:10:07.392Z,0.70
2023-03-11T04:12:35.481Z,0.87
2023-03-11T04:15:03.669Z,0.80
2023-03-11T04:17:31.769Z,0.83
2023-03-11T04:19:59.791Z,1.13
2023-03-11T04:22:28.113Z,0.80
2023-03-11T04:24:56.213Z,1.30
2023-03-11T04:27:25.721Z,1.30
2023-03-11T04:29:53.880Z,1.70
2023-03-11T04:32:23.036Z,2.00
2023-03-11T04:34:51.719Z,2.43
2023-03-11T04:37:19.905Z,2.37
2023-03-11T04:39:48.193Z,2.50
2023-03-11T04:42:16.506Z,2.17
2023-03-11T04:44:46.117Z,1.93
2023-03-11T04:47:15.242Z,1.57
2023-03-11T04:49:43.549Z,2.00
2023-03-11T04:52:11.555Z,1.77
2023-03-11T04:54:39.597Z,2.10
2023-03-11T04:57:07.971Z,1.87
2023-03-11T04:59:36.205Z,1.47
2023-03-11T05:02:05.889Z,1.30
2023-03-11T05:04:34.064Z,1.73
2023-03-11T05:07:02.247Z,1.60
2023-03-11T05:09:30.442Z,1.40
2023-03-11T05:11:58.604Z,1.40
2023-03-11T05:14:26.757Z,1.50
2023-03-11T05:16:54.860Z,1.60
2023-03-11T05:19:35.114Z,1.47
2023-03-11T05:22:03.886Z,1.60
2023-03-11T05:24:32.492Z,1.13
2023-03-11T05:27:01.990Z,1.47
2023-03-11T05:29:30.081Z,1.10
2023-03-11T05:31:58.224Z,1.03
2023-03-11T05:34:27.836Z,1.30
2023-03-11T05:36:55.866Z,1.00
2023-03-11T05:39:23.971Z,0.83
2023-03-11T05:41:52.151Z,1.13
2023-03-11T05:44:20.193Z,1.20
2023-03-11T05:46:48.362Z,1.10
2023-03-11T05:49:16.533Z,1.00
2023-03-11T05:51:46.022Z,0.90
2023-03-11T05:54:16.004Z,1.10
2023-03-11T05:56:44.791Z,1.03
2023-03-11T05:59:16.369Z,0.93
2023-03-11T06:01:45.459Z,0.70
2023-03-11T06:04:14.086Z,1.03
2023-03-11T06:06:43.729Z,1.00
2023-03-11T06:09:14.727Z,0.90
2023-03-11T06:11:43.513Z,1.30
2023-03-11T06:14:13.519Z,1.30
2023-03-11T06:16:42.172Z,1.33
2023-03-11T06:19:10.565Z,1.20
2023-03-11T06:21:38.524Z,1.30
2023-03-11T06:24:07.330Z,1.40
2023-03-11T06:26:36.753Z,1.20
2023-03-11T06:29:04.815Z,1.30
2023-03-11T06:31:32.893Z,1.20
2023-03-11T06:34:00.929Z,1.90
2023-03-11T06:36:28.932Z,1.50
2023-03-11T06:38:56.947Z,1.87
2023-03-11T06:41:25.039Z,1.87
2023-03-11T06:43:54.356Z,1.90
2023-03-11T06:46:23.889Z,1.97
2023-03-11T06:48:52.334Z,2.20
2023-03-11T06:51:21.419Z,1.80
2023-03-11T06:53:51.768Z,1.67
2023-03-11T06:56:20.945Z,1.80
2023-03-11T06:58:49.384Z,1.83
2023-03-11T07:01:20.218Z,1.60
2023-03-11T07:03:49.561Z,1.90
2023-03-11T07:06:19.420Z,1.17
2023-03-11T07:08:48.645Z,1.93
2023-03-11T07:11:18.354Z,1.80
2023-03-11T07:13:47.214Z,1.90
2023-03-11T07:16:16.980Z,1.97
2023-03-11T07:18:47.919Z,1.70
2023-03-11T07:21:18.865Z,1.90
2023-03-11T07:23:47.661Z,2.50
2023-03-11T07:26:18.014Z,2.10
2023-03-11T07:28:46.158Z,1.93
2023-03-11T07:31:16.841Z,2.60
2023-03-11T07:33:46.589Z,2.00
2023-03-11T07:36:16.335Z,2.50
2023-03-11T07:38:44.892Z,3.10
2023-03-11T07:41:14.202Z,2.90
2023-03-11T07:43:43.567Z,3.53
2023-03-11T07:46:13.981Z,3.13
2023-03-11T07:48:42.268Z,3.07
2023-03-11T07:51:14.846Z,3.03
2023-03-11T07:53:43.553Z,3.30
2023-03-11T07:56:13.289Z,3.90
2023-03-11T07:58:43.567Z,3.80
2023-03-11T08:01:16.092Z,3.47
2023-03-11T08:03:45.044Z,3.40
2023-03-11T08:06:15.698Z,2.93
2023-03-11T08:08:44.196Z,3.40
2023-03-11T08:11:13.614Z,3.47
2023-03-11T08:13:42.420Z,3.27
2023-03-11T08:16:12.004Z,4.03
2023-03-11T08:18:40.073Z,4.10
2023-03-11T08:21:09.536Z,4.53
2023-03-11T08:23:39.009Z,4.30
2023-03-11T08:26:08.250Z,3.80
2023-03-11T08:28:36.919Z,3.83
2023-03-11T08:31:12.784Z,4.47
2023-03-11T08:33:40.817Z,4.00
2023-03-11T08:36:09.352Z,3.73
2023-03-11T08:38:38.868Z,4.20
2023-03-11T08:41:06.952Z,2.87
2023-03-11T08:43:35.225Z,3.13
2023-03-11T08:46:04.136Z,4.13
2023-03-11T08:48:32.210Z,3.77
2023-03-11T08:51:00.214Z,3.63
2023-03-11T08:53:28.250Z,3.67
2023-03-11T08:55:57.610Z,3.63
2023-03-11T08:58:25.570Z,2.83
2023-03-11T09:00:53.526Z,3.50
2023-03-11T09:03:21.774Z,3.97
2023-03-11T09:05:49.795Z,3.90
2023-03-11T09:08:17.835Z,3.97
2023-03-11T09:10:45.825Z,3.80
2023-03-11T09:13:15.215Z,3.93
2023-03-11T09:15:43.208Z,3.90
2023-03-11T09:18:13.805Z,3.83
2023-03-11T09:20:42.270Z,3.67
2023-03-11T09:23:12.590Z,3.93
2023-03-11T09:25:40.815Z,3.30
2023-03-11T09:28:08.926Z,4.03
2023-03-11T09:30:38.296Z,3.77
2023-03-11T09:33:06.337Z,3.73
2023-03-11T09:35:34.754Z,3.67
2023-03-11T09:38:02.730Z,3.20
2023-03-11T09:40:47.828Z,3.00
2023-03-11T09:43:22.894Z,3.63
2023-03-11T09:46:01.913Z,3.40
2023-03-11T09:48:36.112Z,3.37
2023-03-11T09:51:11.377Z,4.00
2023-03-11T09:53:43.813Z,3.73
2023-03-11T09:56:14.968Z,4.13
2023-03-11T09:58:47.067Z,4.00
2023-03-11T10:01:22.181Z,3.33
2023-03-11T10:03:52.979Z,3.00
2023-03-11T10:06:23.779Z,4.00
2023-03-11T10:09:00.362Z,4.00
2023-03-11T10:11:51.234Z,3.80
2023-03-11T10:14:35.093Z,4.60
2023-03-11T10:17:13.563Z,3.63
2023-03-11T10:19:49.264Z,3.57
2023-03-11T10:22:21.915Z,3.73
2023-03-11T10:25:03.979Z,3.17
2023-03-11T10:27:37.766Z,3.70
2023-03-11T10:30:14.734Z,4.00
2023-03-11T10:32:49.211Z,4.00
2023-03-11T10:35:19.512Z,4.40
2023-03-11T10:37:53.611Z,4.00
2023-03-11T10:40:30.573Z,3.53
2023-03-11T10:43:02.825Z,4.00
2023-03-11T10:45:37.631Z,3.40
2023-03-11T10:48:12.378Z,4.37
2023-03-11T10:50:50.305Z,3.70
2023-03-11T10:53:20.253Z,4.10
2023-03-11T10:55:50.642Z,4.13
2023-03-11T10:58:20.963Z,4.50
2023-03-11T11:01:02.085Z,4.10
2023-03-11T11:03:31.998Z,4.13
2023-03-11T11:06:02.537Z,4.07
2023-03-11T11:08:31.074Z,3.80
2023-03-11T11:11:00.789Z,4.13
2023-03-11T11:13:31.264Z,4.67
2023-03-11T11:16:02.193Z,4.47
2023-03-11T11:18:35.442Z,4.57
2023-03-11T11:21:06.555Z,4.67
2023-03-11T11:23:39.823Z,5.10
2023-03-11T11:26:15.416Z,4.83
2023-03-11T11:28:44.406Z,4.53
2023-03-11T11:31:24.165Z,5.07
2023-03-11T11:33:55.911Z,4.50
2023-03-11T11:36:28.661Z,4.70
2023-03-11T11:38:57.601Z,4.80
2023-03-11T11:41:28.124Z,4.70
2023-03-11T11:43:58.842Z,5.13
2023-03-11T11:46:31.905Z,5.07
2023-03-11T11:49:12.297Z,4.60
2023-03-11T11:51:45.795Z,4.57
2023-03-11T11:54:18.701Z,5.27
2023-03-11T11:56:46.968Z,5.00
2023-03-11T11:59:19.777Z,5.10
2023-03-11T12:01:58.963Z,5.37
2023-03-11T12:04:39.904Z,5.40
2023-03-11T12:07:26.190Z,5.10
2023-03-11T12:10:12.957Z,5.33
2023-03-11T12:12:55.410Z,5.03
2023-03-11T12:15:28.367Z,5.87
2023-03-11T12:18:03.356Z,5.97
2023-03-11T12:20:38.324Z,6.67
2023-03-11T12:23:17.108Z,6.07
2023-03-11T12:25:59.208Z,6.03
2023-03-11T12:28:39.079Z,5.93
2023-03-11T12:31:10.974Z,6.47
2023-03-11T12:33:41.462Z,6.40
2023-03-11T12:36:23.618Z,5.37
2023-03-11T12:38:52.792Z,4.93
2023-03-11T12:41:33.636Z,6.63
2023-03-11T12:44:21.056Z,6.33
2023-03-11T12:47:04.273Z,5.93
2023-03-11T12:49:33.482Z,6.07
2023-03-11T12:52:22.158Z,4.90
2023-03-11T12:54:51.431Z,6.33
2023-03-11T12:57:35.856Z,5.70
2023-03-11T13:00:18.558Z,5.50
2023-03-11T13:03:26.015Z,5.33
2023-03-11T13:06:01.107Z,5.00
2023-03-11T13:08:36.808Z,5.33
2023-03-11T13:11:30.548Z,5.07
2023-03-11T13:14:12.276Z,5.27
2023-03-11T13:16:40.985Z,4.83
2023-03-11T13:19:37.173Z,4.57
2023-03-11T13:22:07.276Z,5.40
2023-03-11T13:24:51.338Z,4.80
2023-03-11T13:27:33.617Z,4.93
2023-03-11T13:30:10.432Z,4.93
2023-03-11T13:32:57.973Z,4.67
2023-03-11T13:35:45.562Z,4.43
2023-03-11T13:38:30.051Z,4.33
2023-03-11T13:41:01.462Z,4.93
2023-03-11T13:43:29.808Z,4.97
2023-03-11T13:46:02.185Z,4.50
2023-03-11T13:48:33.295Z,5.33
2023-03-11T13:51:06.219Z,4.50
2023-03-11T13:53:39.708Z,4.03
2023-03-11T13:56:18.664Z,4.47
2023-03-11T13:58:46.659Z,4.17
2023-03-11T14:01:18.026Z,4.80
2023-03-11T14:03:47.749Z,5.30
2023-03-11T14:06:19.718Z,4.83
2023-03-11T14:08:54.196Z,5.77
2023-03-11T14:11:29.099Z,5.40
2023-03-11T14:13:57.155Z,5.47
2023-03-11T14:16:31.439Z,5.20
2023-03-11T14:19:08.692Z,5.07
2023-03-11T14:21:37.154Z,4.73
2023-03-11T14:24:05.660Z,5.23
2023-03-11T14:26:36.367Z,4.90
2023-03-11T14:29:11.008Z,4.27
2023-03-11T14:31:40.879Z,4.23
2023-03-11T14:34:16.901Z,4.70
2023-03-11T14:36:46.384Z,4.57
2023-03-11T14:39:25.390Z,4.63
2023-03-11T14:41:58.082Z,4.23
2023-03-11T14:44:28.525Z,4.40
2023-03-11T14:47:04.926Z,4.73
2023-03-11T14:49:33.214Z,3.77
2023-03-11T14:52:07.275Z,4.50
2023-03-11T14:54:37.711Z,4.30
2023-03-11T14:57:12.511Z,4.13
2023-03-11T14:59:41.690Z,3.90
2023-03-11T15:02:35.751Z,3.90
2023-03-11T15:05:07.582Z,5.03
2023-03-11T15:07:37.167Z,4.23
2023-03-11T15:10:10.231Z,4.13
2023-03-11T15:12:43.065Z,4.17
2023-03-11T15:15:29.399Z,4.37
2023-03-11T15:17:59.338Z,4.27
2023-03-11T15:20:31.002Z,4.57
2023-03-11T15:23:01.758Z,4.40
2023-03-11T15:25:33.168Z,3.50
2023-03-11T15:28:25.303Z,4.87
2023-03-11T15:31:14.906Z,4.17
2023-03-11T15:33:43.664Z,3.83
2023-03-11T15:36:30.758Z,3.80
2023-03-11T15:39:13.684Z,4.33
2023-03-11T15:41:42.062Z,4.10
2023-03-11T15:44:29.206Z,3.90
2023-03-11T15:46:59.273Z,3.77
2023-03-11T15:49:27.754Z,3.97
2023-03-11T15:51:59.810Z,4.30
2023-03-11T15:54:27.916Z,3.93
2023-03-11T15:56:57.246Z,4.30
2023-03-11T15:59:27.217Z,3.70
2023-03-11T16:01:55.347Z,4.03
2023-03-11T16:04:24.030Z,3.93
2023-03-11T16:07:06.902Z,3.73
2023-03-11T16:09:36.339Z,4.10
2023-03-11T16:12:14.262Z,4.00
2023-03-11T16:14:43.632Z,4.30
2023-03-11T16:17:14.492Z,4.10
2023-03-11T16:19:42.870Z,4.07
2023-03-11T16:22:17.694Z,4.07
2023-03-11T16:24:46.847Z,4.07
2023-03-11T16:27:17.836Z,4.60
2023-03-11T16:29:47.692Z,4.77
2023-03-11T16:32:15.735Z,4.20
2023-03-11T16:34:44.412Z,4.30
2023-03-11T16:37:16.572Z,3.83
2023-03-11T16:39:44.620Z,4.17
2023-03-11T16:42:12.606Z,4.43
2023-03-11T16:44:40.659Z,4.13
2023-03-11T16:47:10.059Z,3.90
2023-03-11T16:49:38.067Z,4.30
2023-03-11T16:52:06.539Z,3.83
2023-03-11T16:54:35.086Z,3.63
2023-03-11T16:57:03.204Z,3.83
2023-03-11T16:59:31.414Z,3.80
2023-03-11T17:01:59.476Z,3.93
2023-03-11T17:04:28.972Z,3.83
2023-03-11T17:06:57.151Z,3.93
2023-03-11T17:09:25.221Z,3.93
2023-03-11T17:11:53.437Z,4.03
2023-03-11T17:14:21.418Z,4.00
2023-03-11T17:16:49.438Z,3.97
2023-03-11T17:19:17.560Z,4.70
2023-03-11T17:21:47.102Z,3.70
2023-03-11T17:24:15.165Z,3.40
2023-03-11T17:26:43.170Z,3.90
2023-03-11T17:29:11.195Z,3.07
2023-03-11T17:31:39.304Z,3.50
2023-03-11T17:34:07.369Z,3.27
2023-03-11T17:36:35.397Z,3.17
2023-03-11T17:39:04.897Z,3.40
2023-03-11T17:41:33.319Z,2.60
2023-03-11T17:44:01.404Z,2.53
2023-03-11T17:46:29.596Z,3.00
2023-03-11T17:48:57.746Z,3.10
2023-03-11T17:51:27.196Z,3.10
2023-03-11T17:53:56.646Z,3.50
2023-03-11T17:56:26.602Z,2.93
2023-03-11T17:58:55.051Z,3.03
2023-03-11T18:01:25.229Z,3.20
2023-03-11T18:03:53.658Z,3.00
2023-03-11T18:06:22.776Z,3.13
2023-03-11T18:08:51.167Z,3.57
2023-03-11T18:11:21.791Z,3.10
2023-03-11T18:13:52.085Z,2.93
2023-03-11T18:16:22.162Z,3.97
2023-03-11T18:18:50.904Z,4.33
2023-03-11T18:21:20.944Z,5.47
2023-03-11T18:23:49.354Z,6.07
2023-03-11T18:26:19.483Z,5.77
2023-03-11T18:28:47.597Z,5.17
2023-03-11T18:31:19.136Z,6.20
2023-03-11T18:33:49.629Z,5.73
2023-03-11T18:36:19.918Z,6.17
2023-03-11T18:38:48.900Z,5.33
2023-03-11T18:41:17.082Z,4.43
2023-03-11T18:43:45.176Z,4.13
2023-03-11T18:46:16.798Z,4.47
2023-03-11T18:48:44.835Z,3.67
2023-03-11T18:51:12.962Z,3.90
2023-03-11T18:53:42.855Z,3.30
2023-03-11T18:56:14.009Z,3.60
2023-03-11T18:58:42.067Z,3.47
2023-03-11T19:01:12.343Z,3.10
2023-03-11T19:03:42.318Z,3.40
2023-03-11T19:06:11.307Z,3.27
2023-03-11T19:08:39.478Z,3.60
2023-03-11T19:11:08.195Z,3.90
2023-03-11T19:13:46.795Z,4.93
2023-03-11T19:16:17.600Z,5.17
2023-03-11T19:18:47.309Z,5.80
2023-03-11T19:21:16.826Z,5.53
2023-03-11T19:23:45.479Z,5.27
2023-03-11T19:26:14.152Z,3.53
2023-03-11T19:28:42.477Z,3.43
2023-03-11T19:31:10.987Z,3.90
2023-03-11T19:33:39.154Z,2.90
2023-03-11T19:36:09.575Z,3.30
2023-03-11T19:38:37.805Z,2.70
2023-03-11T19:41:08.208Z,2.57
2023-03-11T19:43:36.951Z,2.13
2023-03-11T19:46:06.167Z,2.30
2023-03-11T19:48:34.623Z,1.87
2023-03-11T19:51:03.363Z,2.07
2023-03-11T19:53:33.936Z,2.40
2023-03-11T19:56:03.781Z,2.40
2023-03-11T19:58:32.622Z,2.47
2023-03-11T20:01:02.055Z,2.57
2023-03-11T20:03:30.219Z,2.70
2023-03-11T20:06:04.268Z,2.63
2023-03-11T20:08:36.785Z,2.27
2023-03-11T20:11:06.243Z,2.10
2023-03-11T20:13:35.135Z,2.10
2023-03-11T20:16:08.596Z,2.00
2023-03-11T20:18:36.872Z,2.30
2023-03-11T20:21:09.959Z,2.20
2023-03-11T20:23:40.527Z,2.50
2023-03-11T20:26:10.213Z,2.10
2023-03-11T20:28:38.289Z,1.90
2023-03-11T20:31:13.762Z,2.27
2023-03-11T20:33:41.901Z,2.27
2023-03-11T20:36:11.728Z,2.43
2023-03-11T20:38:41.849Z,2.30
2023-03-11T20:41:10.858Z,2.33
2023-03-11T20:43:40.165Z,2.03
2023-03-11T20:46:09.359Z,2.27
2023-03-11T20:48:37.961Z,2.10
2023-03-11T20:51:08.200Z,2.03
2023-03-11T20:53:36.310Z,2.63
2023-03-11T20:56:09.641Z,2.17
2023-03-11T20:58:38.552Z,2.50
2023-03-11T21:01:12.755Z,2.23
2023-03-11T21:03:41.040Z,1.90
2023-03-11T21:06:15.652Z,2.37
2023-03-11T21:08:44.048Z,2.20
2023-03-11T21:11:13.707Z,2.13
2023-03-11T21:13:42.029Z,2.30
2023-03-11T21:16:11.520Z,2.03
2023-03-11T21:18:40.345Z,1.93
2023-03-11T21:21:11.658Z,2.03
2023-03-11T21:23:40.784Z,2.27
2023-03-11T21:26:09.417Z,2.20
2023-03-11T21:28:40.194Z,2.30
2023-03-11T21:31:11.602Z,1.87
2023-03-11T21:33:40.264Z,2.30
2023-03-11T21:36:10.455Z,2.10
2023-03-11T21:38:40.456Z,2.10
2023-03-11T21:41:10.669Z,2.33
2023-03-11T21:43:41.639Z,1.60
2023-03-11T21:46:11.554Z,1.73
2023-03-11T21:48:40.194Z,2.13
2023-03-11T21:51:08.448Z,2.00
2023-03-11T21:53:36.684Z,1.90
2023-03-11T21:56:05.361Z,1.90
2023-03-11T21:58:34.103Z,1.70
2023-03-11T22:01:04.494Z,1.63
2023-03-11T22:03:35.863Z,2.03
2023-03-11T22:06:06.386Z,1.80
2023-03-11T22:08:35.277Z,1.80
2023-03-11T22:11:03.568Z,1.83
2023-03-11T22:13:31.777Z,1.90
2023-03-11T22:16:02.742Z,1.47
2023-03-11T22:18:32.372Z,2.00
2023-03-11T22:21:00.834Z,1.70
2023-03-11T22:23:29.021Z,2.20
2023-03-11T22:25:57.107Z,1.57
2023-03-11T22:28:25.340Z,2.27
2023-03-11T22:30:53.601Z,2.00
2023-03-11T22:33:21.811Z,2.03
2023-03-11T22:35:55.951Z,1.60
2023-03-11T22:38:24.444Z,1.93
2023-03-11T22:40:52.918Z,2.10
2023-03-11T22:43:20.992Z,1.83
2023-03-11T22:45:49.160Z,2.23
2023-03-11T22:48:17.276Z,2.10
2023-03-11T22:50:45.905Z,1.50
2023-03-11T22:53:15.830Z,1.60
2023-03-11T22:55:44.904Z,1.73
2023-03-11T22:58:13.381Z,1.60
2023-03-11T23:00:44.064Z,1.60
2023-03-11T23:03:12.957Z,1.87
2023-03-11T23:05:42.249Z,1.50
2023-03-11T23:08:11.972Z,1.70
2023-03-11T23:10:42.674Z,1.93
2023-03-11T23:13:11.040Z,1.80
2023-03-11T23:15:41.930Z,1.50
2023-03-11T23:18:10.410Z,1.87
2023-03-11T23:20:40.577Z,1.60
2023-03-11T23:23:08.819Z,1.57
2023-03-11T23:25:37.177Z,1.77
2023-03-11T23:28:07.550Z,1.60
2023-03-11T23:30:35.649Z,1.87
2023-03-11T23:33:03.815Z,1.80
2023-03-11T23:35:32.365Z,1.60
2023-03-11T23:38:00.996Z,1.70
2023-03-11T23:40:29.054Z,1.57
2023-03-11T23:42:57.054Z,1.37
2023-03-11T23:45:26.452Z,1.57
2023-03-11T23:47:54.988Z,1.57
2023-03-11T23:50:23.020Z,1.70
2023-03-11T23:52:51.040Z,1.40
2023-03-11T23:55:19.176Z,1.60
2023-03-11T23:57:47.143Z,1.40
